createdAt,value
2018-12-25T00:00:52.647Z,1.90
2018-12-25T00:03:21.666Z,2.00
2018-12-25T00:05:50.434Z,2.00
2018-12-25T00:08:19.236Z,2.10
2018-12-25T00:10:48.017Z,2.10
2018-12-25T00:13:16.939Z,2.10
2018-12-25T00:15:45.745Z,2.00
2018-12-25T00:18:14.854Z,2.00
2018-12-25T00:20:43.611Z,2.00
2018-12-25T00:23:12.415Z,2.00
2018-12-25T00:25:41.583Z,2.00
2018-12-25T00:28:10.895Z,2.10
2018-12-25T00:30:39.683Z,2.10
2018-12-25T00:33:08.492Z,2.20
2018-12-25T00:35:37.369Z,2.20
2018-12-25T00:38:06.163Z,2.20
2018-12-25T00:40:35.011Z,2.20
2018-12-25T00:43:03.757Z,2.30
2018-12-25T00:45:32.579Z,2.30
2018-12-25T00:48:01.518Z,2.30
2018-12-25T00:50:30.376Z,2.40
2018-12-25T00:52:59.249Z,2.40
2018-12-25T00:55:28.355Z,2.40
2018-12-25T00:57:57.237Z,2.30
2018-12-25T01:00:26.002Z,2.40
2018-12-25T01:02:54.778Z,2.40
2018-12-25T01:05:23.891Z,2.30
2018-12-25T01:07:52.660Z,2.30
2018-12-25T01:10:21.442Z,2.30
2018-12-25T01:12:50.954Z,2.30
2018-12-25T01:15:19.862Z,2.30
2018-12-25T01:17:48.606Z,2.30
2018-12-25T01:20:17.653Z,2.30
2018-12-25T01:22:46.394Z,2.30
2018-12-25T01:25:15.204Z,2.20
2018-12-25T01:27:44.421Z,2.20
2018-12-25T01:30:13.238Z,2.30
2018-12-25T01:32:42.393Z,2.30
2018-12-25T01:35:11.548Z,2.20
2018-12-25T01:37:40.359Z,2.30
2018-12-25T01:40:09.238Z,2.20
2018-12-25T01:42:37.999Z,2.20
2018-12-25T01:45:06.851Z,2.20
2018-12-25T01:47:35.716Z,2.20
2018-12-25T01:50:04.791Z,2.20
2018-12-25T01:52:34.237Z,2.20
2018-12-25T01:55:03.608Z,2.10
2018-12-25T01:57:32.400Z,2.10
2018-12-25T02:00:01.632Z,2.10
2018-12-25T02:02:30.538Z,2.00
2018-12-25T02:04:59.691Z,2.10
2018-12-25T02:07:28.510Z,2.10
2018-12-25T02:09:57.318Z,2.10
2018-12-25T02:12:26.103Z,2.00
2018-12-25T02:14:54.905Z,2.00
2018-12-25T02:17:24.031Z,2.00
2018-12-25T02:19:53.055Z,2.00
2018-12-25T02:22:22.134Z,2.10
2018-12-25T02:24:50.925Z,2.00
2018-12-25T02:27:19.723Z,2.00
2018-12-25T02:29:48.471Z,2.00
2018-12-25T02:32:18.008Z,2.10
2018-12-25T02:34:47.084Z,2.10
2018-12-25T02:37:15.891Z,2.10
2018-12-25T02:39:44.715Z,2.10
2018-12-25T02:42:13.513Z,2.10
2018-12-25T02:44:42.395Z,2.10
2018-12-25T02:47:11.197Z,2.10
2018-12-25T02:49:50.060Z,2.20
2018-12-25T02:52:10.731Z,2.20
2018-12-25T02:54:39.496Z,2.20
2018-12-25T02:57:08.339Z,2.20
2018-12-25T02:59:37.238Z,2.20
2018-12-25T03:02:06.320Z,2.20
2018-12-25T03:04:35.389Z,2.20
2018-12-25T03:07:04.154Z,2.30
2018-12-25T03:09:32.920Z,2.30
2018-12-25T03:12:01.732Z,2.30
2018-12-25T03:14:30.573Z,2.30
2018-12-25T03:16:59.751Z,2.30
2018-12-25T03:19:28.566Z,2.20
2018-12-25T03:21:57.528Z,2.20
2018-12-25T03:24:26.827Z,2.30
2018-12-25T03:26:55.663Z,2.20
2018-12-25T03:29:25.034Z,2.20
2018-12-25T03:31:54.092Z,2.20
2018-12-25T03:34:22.889Z,2.10
2018-12-25T03:36:52.016Z,2.20
2018-12-25T03:39:20.832Z,2.20
2018-12-25T03:41:49.699Z,2.20
2018-12-25T03:44:18.467Z,2.20
2018-12-25T03:46:47.286Z,2.20
2018-12-25T03:49:16.433Z,2.20
2018-12-25T03:51:45.250Z,2.30
2018-12-25T03:54:14.137Z,2.30
2018-12-25T03:56:42.921Z,2.30
2018-12-25T03:59:11.780Z,2.30
2018-12-25T04:01:40.685Z,2.30
2018-12-25T04:04:09.566Z,2.30
2018-12-25T04:06:38.443Z,2.30
2018-12-25T04:09:07.505Z,2.30
2018-12-25T04:11:36.280Z,2.20
2018-12-25T04:14:05.061Z,2.20
2018-12-25T04:16:33.844Z,2.30
2018-12-25T04:19:02.795Z,2.40
2018-12-25T04:21:31.878Z,2.40
2018-12-25T04:24:00.745Z,2.40
2018-12-25T04:26:29.672Z,2.40
2018-12-25T04:28:58.455Z,2.40
2018-12-25T04:31:27.216Z,2.40
2018-12-25T04:33:56.319Z,2.40
2018-12-25T04:36:25.139Z,2.40
2018-12-25T04:38:54.535Z,2.40
2018-12-25T04:41:23.676Z,2.50
2018-12-25T04:43:52.499Z,2.50
2018-12-25T04:46:21.651Z,2.40
2018-12-25T04:48:50.470Z,2.50
2018-12-25T04:51:19.225Z,2.50
2018-12-25T04:53:48.335Z,2.50
2018-12-25T04:56:17.144Z,2.60
2018-12-25T04:58:46.192Z,2.60
2018-12-25T05:01:15.022Z,2.60
2018-12-25T05:03:43.871Z,2.70
2018-12-25T05:06:12.659Z,2.70
2018-12-25T05:08:41.477Z,2.60
2018-12-25T05:11:10.315Z,2.60
2018-12-25T05:13:39.132Z,2.60
2018-12-25T05:16:07.923Z,2.60
2018-12-25T05:18:37.742Z,2.60
2018-12-25T05:21:06.922Z,2.60
2018-12-25T05:23:35.766Z,2.60
2018-12-25T05:26:04.544Z,2.70
2018-12-25T05:28:33.659Z,2.70
2018-12-25T05:31:02.431Z,2.70
2018-12-25T05:33:31.555Z,2.70
2018-12-25T05:36:00.356Z,2.70
2018-12-25T05:38:29.193Z,2.70
2018-12-25T05:40:57.947Z,2.60
2018-12-25T05:43:27.095Z,2.60
2018-12-25T05:45:55.972Z,2.70
2018-12-25T05:48:24.820Z,2.70
2018-12-25T05:50:53.624Z,2.60
2018-12-25T05:53:22.475Z,2.60
2018-12-25T05:55:51.515Z,2.60
2018-12-25T05:58:20.294Z,2.60
2018-12-25T06:00:49.128Z,2.60
2018-12-25T06:03:18.679Z,2.60
2018-12-25T06:05:47.791Z,2.60
2018-12-25T06:08:16.832Z,2.60
2018-12-25T06:10:45.687Z,2.60
2018-12-25T06:13:14.519Z,2.60
2018-12-25T06:15:43.823Z,2.50
2018-12-25T06:18:12.662Z,2.60
2018-12-25T06:20:41.439Z,2.60
2018-12-25T06:23:10.279Z,2.60
2018-12-25T06:25:39.076Z,2.60
2018-12-25T06:28:07.919Z,2.60
2018-12-25T06:30:36.990Z,2.60
2018-12-25T06:33:06.049Z,2.70
2018-12-25T06:35:35.172Z,2.70
2018-12-25T06:38:04.100Z,2.70
2018-12-25T06:40:33.234Z,2.80
2018-12-25T06:43:02.166Z,2.70
2018-12-25T06:45:31.059Z,2.70
2018-12-25T06:47:59.918Z,2.70
2018-12-25T06:50:28.730Z,2.70
2018-12-25T06:52:57.576Z,2.70
2018-12-25T06:55:26.594Z,2.70
2018-12-25T06:57:55.379Z,2.70
2018-12-25T07:00:24.200Z,2.80
2018-12-25T07:02:53.048Z,2.80
2018-12-25T07:05:22.427Z,2.70
2018-12-25T07:07:51.919Z,2.70
2018-12-25T07:10:20.991Z,2.70
2018-12-25T07:12:49.746Z,2.70
2018-12-25T07:15:18.503Z,2.80
2018-12-25T07:17:47.922Z,2.70
2018-12-25T07:20:16.701Z,2.70
2018-12-25T07:22:45.529Z,2.60
2018-12-25T07:25:14.602Z,2.70
2018-12-25T07:27:43.648Z,2.70
2018-12-25T07:30:12.433Z,2.70
2018-12-25T07:32:41.221Z,2.70
2018-12-25T07:35:09.972Z,2.70
2018-12-25T07:37:38.781Z,2.80
2018-12-25T07:40:07.908Z,2.70
2018-12-25T07:42:36.638Z,2.70
2018-12-25T07:45:06.013Z,2.70
2018-12-25T07:47:34.831Z,2.70
2018-12-25T07:50:04.087Z,2.70
2018-12-25T07:52:33.084Z,2.80
2018-12-25T07:55:01.858Z,2.80
2018-12-25T07:57:30.747Z,2.80
2018-12-25T07:59:59.843Z,2.80
2018-12-25T08:02:28.752Z,2.90
2018-12-25T08:04:57.526Z,2.90
2018-12-25T08:07:26.339Z,2.90
2018-12-25T08:09:55.207Z,2.90
2018-12-25T08:12:24.328Z,2.90
2018-12-25T08:14:53.188Z,2.90
2018-12-25T08:17:22.312Z,3.00
2018-12-25T08:19:51.154Z,2.90
2018-12-25T08:22:20.220Z,3.00
2018-12-25T08:24:48.958Z,3.00
2018-12-25T08:27:17.718Z,3.00
2018-12-25T08:29:46.742Z,3.00
2018-12-25T08:32:15.535Z,3.00
2018-12-25T08:34:44.379Z,3.00
2018-12-25T08:37:13.192Z,3.00
2018-12-25T08:39:41.951Z,3.00
2018-12-25T08:42:10.740Z,3.00
2018-12-25T08:44:39.543Z,3.00
2018-12-25T08:47:08.365Z,3.10
2018-12-25T08:49:37.111Z,3.00
2018-12-25T08:52:05.865Z,3.00
2018-12-25T08:54:34.634Z,3.00
2018-12-25T08:57:03.658Z,3.00
2018-12-25T08:59:32.402Z,3.00
2018-12-25T09:02:01.162Z,3.10
2018-12-25T09:04:29.943Z,3.10
2018-12-25T09:06:58.699Z,3.10
2018-12-25T09:09:27.608Z,3.20
2018-12-25T09:11:56.404Z,3.20
2018-12-25T09:14:25.456Z,3.20
2018-12-25T09:16:54.273Z,3.30
2018-12-25T09:19:23.040Z,3.30
2018-12-25T09:21:52.153Z,3.30
2018-12-25T09:24:20.957Z,3.30
2018-12-25T09:26:50.204Z,3.30
2018-12-25T09:29:18.956Z,3.30
2018-12-25T09:31:47.742Z,3.30
2018-12-25T09:34:16.516Z,3.30
2018-12-25T09:36:45.344Z,3.30
2018-12-25T09:39:14.154Z,3.30
2018-12-25T09:41:42.923Z,3.30
2018-12-25T09:44:11.787Z,3.30
2018-12-25T09:46:40.547Z,3.40
2018-12-25T09:49:09.363Z,3.40
2018-12-25T09:51:38.115Z,3.30
2018-12-25T09:54:07.527Z,3.40
2018-12-25T09:56:36.278Z,3.40
2018-12-25T09:59:05.387Z,3.50
2018-12-25T10:01:34.147Z,3.50
2018-12-25T10:04:03.610Z,3.50
2018-12-25T10:06:32.531Z,3.50
2018-12-25T10:09:01.618Z,3.50
2018-12-25T10:11:30.445Z,3.60
2018-12-25T10:13:59.314Z,3.60
2018-12-25T10:16:28.108Z,3.60
2018-12-25T10:18:56.915Z,3.70
2018-12-25T10:21:25.712Z,3.60
2018-12-25T10:23:54.527Z,3.60
2018-12-25T10:26:23.320Z,3.60
2018-12-25T10:28:52.104Z,3.60
2018-12-25T10:31:21.170Z,3.60
2018-12-25T10:33:49.947Z,3.70
2018-12-25T10:36:19.027Z,3.70
2018-12-25T10:38:48.042Z,3.70
2018-12-25T10:41:16.867Z,3.70
2018-12-25T10:43:45.670Z,3.70
2018-12-25T10:46:14.443Z,3.70
2018-12-25T10:48:43.544Z,3.70
2018-12-25T10:51:12.404Z,3.80
2018-12-25T10:53:41.198Z,3.70
2018-12-25T10:56:09.997Z,3.80
2018-12-25T10:58:39.091Z,3.70
2018-12-25T11:01:19.503Z,3.80
2018-12-25T11:03:48.528Z,3.80
2018-12-25T11:06:17.275Z,3.80
2018-12-25T11:08:46.080Z,3.70
2018-12-25T11:11:14.908Z,3.80
2018-12-25T11:13:43.693Z,3.80
2018-12-25T11:16:12.430Z,3.80
2018-12-25T11:18:48.953Z,3.80
2018-12-25T11:21:11.683Z,3.80
2018-12-25T11:23:40.478Z,3.80
2018-12-25T11:26:09.668Z,3.80
2018-12-25T11:28:39.957Z,3.80
2018-12-25T11:31:08.887Z,3.90
2018-12-25T11:33:37.901Z,3.90
2018-12-25T11:36:06.659Z,3.90
2018-12-25T11:38:35.450Z,4.00
2018-12-25T11:41:04.303Z,4.00
2018-12-25T11:43:33.091Z,4.10
2018-12-25T11:46:02.244Z,4.10
2018-12-25T11:48:31.108Z,4.10
2018-12-25T11:51:00.222Z,4.10
2018-12-25T11:53:28.998Z,4.00
2018-12-25T11:55:58.113Z,4.00
2018-12-25T11:58:27.236Z,4.10
2018-12-25T12:00:56.058Z,4.10
2018-12-25T12:03:25.168Z,4.10
2018-12-25T12:05:54.331Z,4.10
2018-12-25T12:08:23.719Z,4.10
2018-12-25T12:10:52.492Z,4.10
2018-12-25T12:13:21.296Z,4.10
2018-12-25T12:15:50.062Z,4.10
2018-12-25T12:18:19.161Z,4.10
2018-12-25T12:20:48.001Z,4.20
2018-12-25T12:23:16.861Z,4.30
2018-12-25T12:25:45.682Z,4.30
2018-12-25T12:28:14.832Z,4.20
2018-12-25T12:30:43.686Z,4.20
2018-12-25T12:33:12.472Z,4.20
2018-12-25T12:35:41.289Z,4.30
2018-12-25T12:38:10.457Z,4.30
2018-12-25T12:40:40.568Z,4.20
2018-12-25T12:43:09.503Z,4.20
2018-12-25T12:45:38.288Z,4.20
2018-12-25T12:48:07.234Z,4.10
2018-12-25T12:50:36.023Z,4.10
2018-12-25T12:53:05.192Z,4.00
2018-12-25T12:55:33.948Z,4.10
2018-12-25T12:58:03.332Z,4.10
2018-12-25T13:00:32.216Z,4.20
2018-12-25T13:03:01.011Z,4.20
2018-12-25T13:05:29.882Z,4.10
2018-12-25T13:07:58.671Z,4.20
2018-12-25T13:10:27.551Z,4.20
2018-12-25T13:12:56.949Z,4.20
2018-12-25T13:15:26.052Z,4.10
2018-12-25T13:17:54.921Z,4.10
2018-12-25T13:20:23.691Z,4.20
2018-12-25T13:22:54.215Z,4.20
2018-12-25T13:25:23.376Z,4.10
2018-12-25T13:27:52.147Z,4.20
2018-12-25T13:30:21.575Z,4.20
2018-12-25T13:32:50.803Z,4.20
2018-12-25T13:35:19.599Z,4.20
2018-12-25T13:37:48.761Z,4.20
2018-12-25T13:40:17.607Z,4.20
2018-12-25T13:42:46.639Z,4.20
2018-12-25T13:45:15.443Z,4.20
2018-12-25T13:47:44.745Z,4.20
2018-12-25T13:50:13.544Z,4.20
2018-12-25T13:52:42.366Z,4.20
2018-12-25T13:55:11.238Z,4.10
2018-12-25T13:57:40.784Z,4.10
2018-12-25T14:00:09.660Z,4.10
2018-12-25T14:02:40.191Z,4.10
2018-12-25T14:05:09.026Z,4.20
2018-12-25T14:07:38.043Z,4.10
2018-12-25T14:10:07.974Z,4.00
2018-12-25T14:12:36.747Z,4.00
2018-12-25T14:15:06.073Z,4.00
2018-12-25T14:17:35.176Z,4.00
2018-12-25T14:20:04.993Z,4.00
2018-12-25T14:22:33.797Z,4.10
2018-12-25T14:25:02.592Z,4.10
2018-12-25T14:27:31.368Z,4.10
2018-12-25T14:30:00.261Z,4.10
2018-12-25T14:32:29.126Z,4.10
2018-12-25T14:34:58.179Z,4.10
2018-12-25T14:37:27.128Z,4.00
2018-12-25T14:39:56.017Z,4.00
2018-12-25T14:42:25.128Z,4.10
2018-12-25T14:44:53.941Z,4.10
2018-12-25T14:47:23.153Z,4.10
2018-12-25T14:49:52.033Z,4.00
2018-12-25T14:52:21.404Z,4.10
2018-12-25T14:54:50.181Z,4.10
2018-12-25T14:57:19.413Z,4.00
2018-12-25T14:59:48.476Z,4.10
2018-12-25T15:02:17.311Z,4.10
2018-12-25T15:04:46.184Z,4.00
2018-12-25T15:07:15.026Z,4.00
2018-12-25T15:09:44.213Z,4.00
2018-12-25T15:12:13.457Z,4.00
2018-12-25T15:14:42.499Z,4.00
2018-12-25T15:17:11.315Z,4.00
2018-12-25T15:19:40.628Z,4.10
2018-12-25T15:22:09.865Z,4.00
2018-12-25T15:24:38.729Z,4.10
2018-12-25T15:27:07.971Z,4.00
2018-12-25T15:29:36.909Z,4.00
2018-12-25T15:32:05.676Z,4.10
2018-12-25T15:34:34.875Z,4.10
2018-12-25T15:37:03.730Z,4.10
2018-12-25T15:39:34.032Z,4.10
2018-12-25T15:42:02.841Z,4.10
2018-12-25T15:44:31.601Z,4.10
2018-12-25T15:47:00.408Z,4.20
2018-12-25T15:49:29.261Z,4.10
2018-12-25T15:51:58.353Z,4.10
2018-12-25T15:54:27.216Z,4.10
2018-12-25T15:56:57.853Z,4.10
2018-12-25T15:59:27.097Z,4.10
2018-12-25T16:01:55.935Z,4.10
2018-12-25T16:04:24.961Z,4.10
2018-12-25T16:06:53.972Z,4.10
2018-12-25T16:09:22.747Z,4.10
2018-12-25T16:11:51.558Z,4.10
2018-12-25T16:14:20.429Z,4.10
2018-12-25T16:16:49.561Z,4.00
2018-12-25T16:19:18.677Z,4.00
2018-12-25T16:21:48.042Z,4.00
2018-12-25T16:24:16.948Z,3.90
2018-12-25T16:26:45.969Z,3.90
2018-12-25T16:29:15.655Z,3.90
2018-12-25T16:31:44.521Z,3.90
2018-12-25T16:34:13.319Z,3.90
2018-12-25T16:36:42.668Z,3.90
2018-12-25T16:39:11.459Z,3.90
2018-12-25T16:41:40.279Z,3.90
2018-12-25T16:44:09.216Z,3.90
2018-12-25T16:46:38.058Z,4.00
2018-12-25T16:49:06.863Z,4.00
2018-12-25T16:51:36.054Z,4.00
2018-12-25T16:54:04.824Z,4.10
2018-12-25T16:56:33.596Z,4.00
2018-12-25T16:59:17.695Z,4.00
2018-12-25T17:01:46.454Z,4.00
2018-12-25T17:04:15.255Z,4.00
2018-12-25T17:06:44.135Z,4.10
2018-12-25T17:09:12.917Z,4.10
2018-12-25T17:11:41.831Z,4.10
2018-12-25T17:14:10.621Z,4.00
2018-12-25T17:16:39.368Z,4.10
2018-12-25T17:19:08.176Z,4.00
2018-12-25T17:21:37.023Z,4.00
2018-12-25T17:24:05.800Z,4.00
2018-12-25T17:26:34.659Z,4.10
2018-12-25T17:29:03.499Z,4.00
2018-12-25T17:31:32.429Z,4.00
2018-12-25T17:34:01.271Z,4.00
2018-12-25T17:36:30.138Z,4.10
2018-12-25T17:38:58.910Z,4.10
2018-12-25T17:41:28.097Z,4.10
2018-12-25T17:43:57.825Z,4.10
2018-12-25T17:46:26.553Z,4.10
2018-12-25T17:48:55.332Z,4.10
2018-12-25T17:51:24.124Z,4.10
2018-12-25T17:53:52.995Z,4.10
2018-12-25T17:56:22.095Z,4.10
2018-12-25T17:58:50.850Z,4.20
2018-12-25T18:01:19.641Z,4.20
2018-12-25T18:03:48.447Z,4.10
2018-12-25T18:06:17.592Z,4.20
2018-12-25T18:08:47.063Z,4.20
2018-12-25T18:11:16.095Z,4.10
2018-12-25T18:13:45.554Z,4.20
2018-12-25T18:16:14.360Z,4.10
2018-12-25T18:18:43.179Z,4.10
2018-12-25T18:21:12.220Z,4.20
2018-12-25T18:23:41.081Z,4.20
2018-12-25T18:26:09.926Z,4.20
2018-12-25T18:28:39.236Z,4.20
2018-12-25T18:31:08.245Z,4.20
2018-12-25T18:33:37.392Z,4.20
2018-12-25T18:36:06.255Z,4.20
2018-12-25T18:38:35.028Z,4.20
2018-12-25T18:41:03.814Z,4.20
2018-12-25T18:43:32.908Z,4.20
2018-12-25T18:46:01.950Z,4.20
2018-12-25T18:48:30.870Z,4.30
2018-12-25T18:50:59.826Z,4.30
2018-12-25T18:53:29.037Z,4.30
2018-12-25T18:55:58.152Z,4.20
2018-12-25T18:58:26.932Z,4.20
2018-12-25T19:00:56.045Z,4.20
2018-12-25T19:03:24.896Z,4.20
2018-12-25T19:05:53.670Z,4.20
2018-12-25T19:08:22.717Z,4.20
2018-12-25T19:10:51.601Z,4.20
2018-12-25T19:13:20.519Z,4.30
2018-12-25T19:15:51.660Z,4.20
2018-12-25T19:18:20.430Z,4.20
2018-12-25T19:20:49.235Z,4.20
2018-12-25T19:23:18.086Z,4.20
2018-12-25T19:25:46.870Z,4.20
2018-12-25T19:28:15.775Z,4.20
2018-12-25T19:30:44.564Z,4.20
2018-12-25T19:33:13.474Z,4.20
2018-12-25T19:35:42.272Z,4.20
2018-12-25T19:38:11.327Z,4.20
2018-12-25T19:40:40.147Z,4.20
2018-12-25T19:43:09.200Z,4.20
2018-12-25T19:45:38.019Z,4.20
2018-12-25T19:48:06.970Z,4.30
2018-12-25T19:50:35.727Z,4.30
2018-12-25T19:53:04.629Z,4.20
2018-12-25T19:55:33.464Z,4.20
2018-12-25T19:58:02.254Z,4.20
2018-12-25T20:00:31.081Z,4.30
2018-12-25T20:03:05.490Z,4.30
2018-12-25T20:06:06.596Z,4.30
2018-12-25T20:09:38.395Z,4.30
2018-12-25T20:12:39.927Z,4.30
2018-12-25T20:15:24.220Z,4.30
2018-12-25T20:18:23.505Z,4.20
2018-12-25T20:21:28.650Z,4.20
2018-12-25T20:24:24.887Z,4.20
2018-12-25T20:27:38.807Z,4.20
2018-12-25T20:30:49.462Z,4.20
2018-12-25T20:33:48.790Z,4.20
2018-12-25T20:36:52.125Z,4.10
2018-12-25T20:39:47.431Z,4.10
2018-12-25T20:43:13.119Z,4.10
2018-12-25T20:46:07.587Z,4.20
2018-12-25T20:49:06.203Z,4.10
2018-12-25T20:52:18.014Z,4.00
2018-12-25T20:55:10.054Z,4.10
2018-12-25T20:58:04.857Z,4.10
2018-12-25T21:01:02.303Z,4.10
2018-12-25T21:04:00.575Z,4.10
2018-12-25T21:07:22.849Z,4.10
2018-12-25T21:10:34.728Z,4.10
2018-12-25T21:13:30.047Z,4.10
2018-12-25T21:16:29.596Z,4.10
2018-12-25T21:19:36.746Z,4.10
2018-12-25T21:22:44.439Z,4.10
2018-12-25T21:26:02.820Z,4.10
2018-12-25T21:28:33.922Z,4.10
2018-12-25T21:31:04.182Z,4.10
2018-12-25T21:33:33.111Z,4.10
2018-12-25T21:36:02.565Z,4.10
2018-12-25T21:38:31.712Z,4.10
2018-12-25T21:41:00.870Z,4.20
2018-12-25T21:43:30.313Z,4.20
2018-12-25T21:45:59.081Z,4.20
2018-12-25T21:48:28.387Z,4.20
2018-12-25T21:50:57.215Z,4.20
2018-12-25T21:53:26.818Z,4.30
2018-12-25T21:55:58.340Z,4.30
2018-12-25T21:58:27.513Z,4.30
2018-12-25T22:00:57.098Z,4.30
2018-12-25T22:03:26.414Z,4.30
2018-12-25T22:05:55.249Z,4.30
2018-12-25T22:08:23.983Z,4.30
2018-12-25T22:10:52.895Z,4.30
2018-12-25T22:13:21.935Z,4.30
2018-12-25T22:15:51.007Z,4.30
2018-12-25T22:18:20.068Z,4.30
2018-12-25T22:20:50.077Z,4.30
2018-12-25T22:23:19.018Z,4.40
2018-12-25T22:25:47.801Z,4.30
2018-12-25T22:28:17.150Z,4.30
2018-12-25T22:30:46.339Z,4.30
2018-12-25T22:33:15.242Z,4.30
2018-12-25T22:35:44.015Z,4.30
2018-12-25T22:38:12.828Z,4.30
2018-12-25T22:40:41.594Z,4.20
2018-12-25T22:43:10.375Z,4.20
2018-12-25T22:45:39.202Z,4.20
2018-12-25T22:48:08.056Z,4.30
2018-12-25T22:50:36.890Z,4.30
2018-12-25T22:53:05.831Z,4.30
2018-12-25T22:55:35.926Z,4.30
2018-12-25T22:58:05.043Z,4.30
2018-12-25T23:00:33.803Z,4.30
2018-12-25T23:03:02.843Z,4.30
2018-12-25T23:05:32.215Z,4.30
2018-12-25T23:08:01.008Z,4.30
2018-12-25T23:10:30.060Z,4.30
2018-12-25T23:12:58.840Z,4.30
2018-12-25T23:15:27.696Z,4.30
2018-12-25T23:17:56.498Z,4.30
2018-12-25T23:20:28.846Z,4.30
2018-12-25T23:22:55.897Z,4.30
2018-12-25T23:25:24.744Z,4.30
2018-12-25T23:27:53.498Z,4.30
2018-12-25T23:30:22.632Z,4.30
2018-12-25T23:32:51.431Z,4.30
2018-12-25T23:35:20.329Z,4.30
2018-12-25T23:37:49.133Z,4.30
2018-12-25T23:40:18.004Z,4.30
2018-12-25T23:42:46.813Z,4.30
2018-12-25T23:45:15.699Z,4.40
2018-12-25T23:47:44.499Z,4.40
2018-12-25T23:50:13.599Z,4.40
2018-12-25T23:52:42.378Z,4.30
2018-12-25T23:55:11.158Z,4.30
2018-12-25T23:57:40.627Z,4.40
